Archival Weather

Norman Y Mineta San Jose Intl

San Jose, California (KSJC)

Report from: Wednesday, February 7, 2024 12:53 PM PST
Current time: Monday, June 24, 2024 1:50 AM PDT

Current weather – Weather history – Daily summaries
Weather forecast

Present weatherRain
Temperature9.4°C (48.9°F)
Wind chill7.7°C (45.9°F)
Dew point6.7°C (44.1°F)
Winds 6 kts (3.1 m/s, 6.9 mph) South (190°)
Visibility4 mi. (6.4 km)
Clouds Few clouds 700 ft. (213 m)
Ceiling: Broken clouds 2,700 ft. (823 m)
Overcast 3,600 ft. (1,097 m)
Altimeter29.77 in.Hg (1008 mB)
Precipitiation0.25 in. (6 mm)
Precip last 3 hours0.45 in. (11 mm)
Relative humidity83 %
Density altitude-357 ft. (-109 m)
Sea-level pressure100.8 kPa (1008 mB, 29.77 in.Hg)
Remarks Automated weather observing station with precipitation discriminator
Pressure falling, then rising
Flight conditions Marginal Visual Meteorological Conditions
Raw dataKSJC 072053Z 19006KT 4SM RA FEW007 BKN027 OVC036 09/07 A2977 RMK AO2 WSHFT 2005 SLP082 P0025 60045 T00940067 55022
An error has occurred. This application may no longer respond until reloaded. Reload 🗙